KGGG

East Texas Regional Airport

Longview, Texas, USA
METAR KGGG 182253Z 23006KT 10SM SCT070 37/21 A2985 RMK AO2 LTG DSNT NE SLP100 T03720206
Observed Flight Rules
Aug-18 @ 22:53 UTC (52 minutes ago) Visual Flight Rules
Wind Visibility Clouds
230° at 6 knots 10 miles
  • Scattered at 7,000' AGL
Temperatures Readings
Current 37°C / 99°F
Dewpoint 21°C / 70°F
Humidity 39%
Altimeter 29.85" Hg
Pressure 1010 hPa
Elevation 107
METAR KGGG 182253Z 23006KT 10SM SCT070 37/21 A2985 RMK AO2 LTG DSNT NE SLP100 T03720206
Observed Flight Rules
Aug-18 @ 22:53 UTC
(52 minutes ago)
VFR
Wind Visibility
230° at 6 knots 10 miles
Clouds
  • Scattered at 7,000' AGL
Temperature Dewpoint
37°C / 99°F 21°C / 70°F
Humidity Altimeter Pressure
39% 29.85" Hg 1010 hPa